sensor_id;sensor_type;location;lat;lon;timestamp;P1;durP1;ratioP1;P2;durP2;ratioP2
25391;SDS011;13329;48.402;11.718;2023-03-01T00:00:05;20.45;;;7.53;;
25391;SDS011;13329;48.402;11.718;2023-03-01T00:02:32;15.27;;;6.80;;
25391;SDS011;13329;48.402;11.718;2023-03-01T00:04:57;17.90;;;7.13;;
25391;SDS011;13329;48.402;11.718;2023-03-01T00:07:22;15.83;;;7.37;;
25391;SDS011;13329;48.402;11.718;2023-03-01T00:09:47;14.07;;;6.70;;
25391;SDS011;13329;48.402;11.718;2023-03-01T00:12:12;18.88;;;7.65;;
25391;SDS011;13329;48.402;11.718;2023-03-01T00:14:37;22.17;;;7.50;;
25391;SDS011;13329;48.402;11.718;2023-03-01T00:17:03;18.25;;;6.72;;
25391;SDS011;13329;48.402;11.718;2023-03-01T00:19:28;17.90;;;7.37;;
25391;SDS011;13329;48.402;11.718;2023-03-01T00:21:53;16.87;;;7.00;;
25391;SDS011;13329;48.402;11.718;2023-03-01T00:24:18;17.83;;;7.63;;
25391;SDS011;13329;48.402;11.718;2023-03-01T00:26:43;17.90;;;6.80;;
25391;SDS011;13329;48.402;11.718;2023-03-01T00:29:08;17.03;;;7.67;;
25391;SDS011;13329;48.402;11.718;2023-03-01T00:31:34;13.90;;;6.53;;
25391;SDS011;13329;48.402;11.718;2023-03-01T00:34:00;20.40;;;8.13;;
25391;SDS011;13329;48.402;11.718;2023-03-01T00:36:27;16.20;;;6.10;;
25391;SDS011;13329;48.402;11.718;2023-03-01T00:38:53;15.98;;;7.05;;
25391;SDS011;13329;48.402;11.718;2023-03-01T00:41:19;15.40;;;7.03;;
25391;SDS011;13329;48.402;11.718;2023-03-01T00:43:44;21.55;;;7.68;;
25391;SDS011;13329;48.402;11.718;2023-03-01T00:46:11;17.30;;;6.78;;
25391;SDS011;13329;48.402;11.718;2023-03-01T00:48:36;19.55;;;7.35;;
25391;SDS011;13329;48.402;11.718;2023-03-01T00:51:20;17.37;;;6.97;;
25391;SDS011;13329;48.402;11.718;2023-03-01T00:53:46;15.95;;;7.10;;
25391;SDS011;13329;48.402;11.718;2023-03-01T00:56:12;20.17;;;7.50;;
25391;SDS011;13329;48.402;11.718;2023-03-01T00:58:38;22.27;;;6.18;;
25391;SDS011;13329;48.402;11.718;2023-03-01T01:01:09;15.38;;;7.10;;
25391;SDS011;13329;48.402;11.718;2023-03-01T01:03:45;16.58;;;6.18;;
25391;SDS011;13329;48.402;11.718;2023-03-01T01:06:18;19.30;;;7.43;;
25391;SDS011;13329;48.402;11.718;2023-03-01T01:08:43;20.88;;;6.88;;
25391;SDS011;13329;48.402;11.718;2023-03-01T01:11:10;20.57;;;7.20;;
25391;SDS011;13329;48.402;11.718;2023-03-01T01:13:35;18.30;;;7.07;;
25391;SDS011;13329;48.402;11.718;2023-03-01T01:16:01;18.23;;;6.53;;
25391;SDS011;13329;48.402;11.718;2023-03-01T01:18:26;15.30;;;5.97;;
25391;SDS011;13329;48.402;11.718;2023-03-01T01:20:51;20.33;;;7.23;;
25391;SDS011;13329;48.402;11.718;2023-03-01T01:23:16;17.98;;;6.85;;
25391;SDS011;13329;48.402;11.718;2023-03-01T01:25:41;16.42;;;6.75;;
25391;SDS011;13329;48.402;11.718;2023-03-01T01:28:07;20.30;;;7.28;;
25391;SDS011;13329;48.402;11.718;2023-03-01T01:30:32;15.73;;;6.63;;
25391;SDS011;13329;48.402;11.718;2023-03-01T01:32:57;15.00;;;6.68;;
25391;SDS011;13329;48.402;11.718;2023-03-01T01:35:22;17.08;;;6.65;;
25391;SDS011;13329;48.402;11.718;2023-03-01T01:37:47;17.63;;;6.27;;
25391;SDS011;13329;48.402;11.718;2023-03-01T01:40:13;17.02;;;6.60;;
25391;SDS011;13329;48.402;11.718;2023-03-01T01:42:38;15.75;;;6.65;;
25391;SDS011;13329;48.402;11.718;2023-03-01T01:47:47;19.92;;;7.03;;
25391;SDS011;13329;48.402;11.718;2023-03-01T01:50:14;15.75;;;7.22;;
25391;SDS011;13329;48.402;11.718;2023-03-01T01:52:42;16.60;;;6.93;;
25391;SDS011;13329;48.402;11.718;2023-03-01T01:55:11;18.07;;;7.40;;
25391;SDS011;13329;48.402;11.718;2023-03-01T01:57:44;15.35;;;7.05;;
25391;SDS011;13329;48.402;11.718;2023-03-01T02:00:28;17.67;;;6.57;;
25391;SDS011;13329;48.402;11.718;2023-03-01T02:02:55;11.90;;;6.10;;
25391;SDS011;13329;48.402;11.718;2023-03-01T02:05:24;17.27;;;7.25;;
25391;SDS011;13329;48.402;11.718;2023-03-01T02:07:51;18.73;;;7.82;;
25391;SDS011;13329;48.402;11.718;2023-03-01T02:10:16;16.38;;;6.50;;
25391;SDS011;13329;48.402;11.718;2023-03-01T02:12:42;19.33;;;7.22;;
25391;SDS011;13329;48.402;11.718;2023-03-01T02:15:07;20.60;;;6.63;;
25391;SDS011;13329;48.402;11.718;2023-03-01T02:17:32;19.63;;;6.80;;
25391;SDS011;13329;48.402;11.718;2023-03-01T02:20:16;15.50;;;5.85;;
25391;SDS011;13329;48.402;11.718;2023-03-01T02:22:44;15.38;;;6.65;;
25391;SDS011;13329;48.402;11.718;2023-03-01T02:30:27;14.43;;;6.43;;
25391;SDS011;13329;48.402;11.718;2023-03-01T02:32:53;17.30;;;6.40;;
25391;SDS011;13329;48.402;11.718;2023-03-01T02:35:27;14.55;;;6.47;;
25391;SDS011;13329;48.402;11.718;2023-03-01T02:37:52;16.93;;;6.40;;
25391;SDS011;13329;48.402;11.718;2023-03-01T02:40:17;14.03;;;6.93;;
25391;SDS011;13329;48.402;11.718;2023-03-01T02:42:47;15.80;;;7.00;;
25391;SDS011;13329;48.402;11.718;2023-03-01T02:45:13;19.02;;;7.47;;
25391;SDS011;13329;48.402;11.718;2023-03-01T02:47:38;15.70;;;6.90;;
25391;SDS011;13329;48.402;11.718;2023-03-01T02:50:10;19.33;;;7.32;;
25391;SDS011;13329;48.402;11.718;2023-03-01T02:52:47;17.83;;;6.65;;
25391;SDS011;13329;48.402;11.718;2023-03-01T02:55:18;15.38;;;6.18;;
25391;SDS011;13329;48.402;11.718;2023-03-01T02:57:44;15.70;;;6.07;;
25391;SDS011;13329;48.402;11.718;2023-03-01T03:00:11;17.42;;;6.63;;
25391;SDS011;13329;48.402;11.718;2023-03-01T03:02:44;15.50;;;6.20;;
25391;SDS011;13329;48.402;11.718;2023-03-01T03:05:17;19.63;;;6.85;;
25391;SDS011;13329;48.402;11.718;2023-03-01T03:07:43;19.00;;;7.07;;
25391;SDS011;13329;48.402;11.718;2023-03-01T03:10:51;19.48;;;7.03;;
25391;SDS011;13329;48.402;11.718;2023-03-01T03:12:58;15.93;;;6.13;;
25391;SDS011;13329;48.402;11.718;2023-03-01T03:15:25;21.45;;;7.72;;
25391;SDS011;13329;48.402;11.718;2023-03-01T03:17:51;16.73;;;6.70;;
25391;SDS011;13329;48.402;11.718;2023-03-01T03:20:17;19.50;;;6.60;;
25391;SDS011;13329;48.402;11.718;2023-03-01T03:22:44;19.20;;;6.70;;
25391;SDS011;13329;48.402;11.718;2023-03-01T03:25:09;17.38;;;7.13;;
25391;SDS011;13329;48.402;11.718;2023-03-01T03:27:36;16.75;;;6.95;;
25391;SDS011;13329;48.402;11.718;2023-03-01T03:30:01;18.65;;;6.72;;
25391;SDS011;13329;48.402;11.718;2023-03-01T03:32:26;13.67;;;6.30;;
25391;SDS011;13329;48.402;11.718;2023-03-01T03:34:51;18.47;;;7.10;;
25391;SDS011;13329;48.402;11.718;2023-03-01T03:37:16;19.02;;;7.28;;
25391;SDS011;13329;48.402;11.718;2023-03-01T03:40:00;14.32;;;6.80;;
25391;SDS011;13329;48.402;11.718;2023-03-01T03:42:25;17.43;;;6.87;;
25391;SDS011;13329;48.402;11.718;2023-03-01T03:44:50;17.20;;;6.90;;
25391;SDS011;13329;48.402;11.718;2023-03-01T03:47:16;16.42;;;6.63;;
25391;SDS011;13329;48.402;11.718;2023-03-01T03:49:41;14.03;;;6.10;;
25391;SDS011;13329;48.402;11.718;2023-03-01T03:52:06;23.90;;;7.63;;
25391;SDS011;13329;48.402;11.718;2023-03-01T03:54:38;16.42;;;7.00;;
25391;SDS011;13329;48.402;11.718;2023-03-01T03:57:03;20.90;;;6.97;;
25391;SDS011;13329;48.402;11.718;2023-03-01T03:59:28;20.63;;;7.27;;
25391;SDS011;13329;48.402;11.718;2023-03-01T04:01:53;27.27;;;7.90;;
25391;SDS011;13329;48.402;11.718;2023-03-01T04:04:18;13.55;;;6.03;;
25391;SDS011;13329;48.402;11.718;2023-03-01T04:06:43;19.42;;;7.22;;
25391;SDS011;13329;48.402;11.718;2023-03-01T04:09:09;16.52;;;6.38;;
25391;SDS011;13329;48.402;11.718;2023-03-01T04:11:34;19.17;;;6.40;;
25391;SDS011;13329;48.402;11.718;2023-03-01T04:13:59;18.77;;;7.15;;
25391;SDS011;13329;48.402;11.718;2023-03-01T04:16:25;13.90;;;6.30;;
25391;SDS011;13329;48.402;11.718;2023-03-01T04:18:50;16.45;;;6.82;;
25391;SDS011;13329;48.402;11.718;2023-03-01T04:21:17;22.98;;;7.60;;
25391;SDS011;13329;48.402;11.718;2023-03-01T04:23:42;20.73;;;7.60;;
25391;SDS011;13329;48.402;11.718;2023-03-01T04:26:07;16.33;;;6.93;;
25391;SDS011;13329;48.402;11.718;2023-03-01T04:28:34;16.48;;;6.65;;
25391;SDS011;13329;48.402;11.718;2023-03-01T04:31:05;22.50;;;7.65;;
25391;SDS011;13329;48.402;11.718;2023-03-01T04:33:42;17.02;;;7.07;;
25391;SDS011;13329;48.402;11.718;2023-03-01T04:36:07;18.35;;;6.75;;
25391;SDS011;13329;48.402;11.718;2023-03-01T04:38:33;17.00;;;7.30;;
25391;SDS011;13329;48.402;11.718;2023-03-01T04:40:58;19.70;;;7.35;;
25391;SDS011;13329;48.402;11.718;2023-03-01T04:43:24;23.35;;;7.50;;
25391;SDS011;13329;48.402;11.718;2023-03-01T04:45:49;21.60;;;7.77;;
25391;SDS011;13329;48.402;11.718;2023-03-01T04:48:14;18.65;;;6.78;;
25391;SDS011;13329;48.402;11.718;2023-03-01T04:50:39;16.23;;;6.97;;
25391;SDS011;13329;48.402;11.718;2023-03-01T04:53:04;19.60;;;7.18;;
25391;SDS011;13329;48.402;11.718;2023-03-01T04:55:30;16.13;;;6.53;;
25391;SDS011;13329;48.402;11.718;2023-03-01T04:57:55;16.93;;;6.37;;
25391;SDS011;13329;48.402;11.718;2023-03-01T05:00:20;20.80;;;7.93;;
25391;SDS011;13329;48.402;11.718;2023-03-01T05:02:56;20.10;;;7.32;;
25391;SDS011;13329;48.402;11.718;2023-03-01T05:07:50;17.00;;;6.78;;
25391;SDS011;13329;48.402;11.718;2023-03-01T05:10:15;15.25;;;6.15;;
25391;SDS011;13329;48.402;11.718;2023-03-01T05:12:40;24.20;;;7.77;;
25391;SDS011;13329;48.402;11.718;2023-03-01T05:15:05;14.00;;;6.77;;
25391;SDS011;13329;48.402;11.718;2023-03-01T05:17:32;23.48;;;7.95;;
25391;SDS011;13329;48.402;11.718;2023-03-01T05:19:57;18.58;;;6.50;;
25391;SDS011;13329;48.402;11.718;2023-03-01T05:22:24;19.38;;;7.80;;
25391;SDS011;13329;48.402;11.718;2023-03-01T05:24:49;21.83;;;8.47;;
25391;SDS011;13329;48.402;11.718;2023-03-01T05:27:15;22.75;;;7.65;;
25391;SDS011;13329;48.402;11.718;2023-03-01T05:29:40;18.15;;;7.00;;
25391;SDS011;13329;48.402;11.718;2023-03-01T05:32:05;15.47;;;5.93;;
25391;SDS011;13329;48.402;11.718;2023-03-01T05:34:34;13.70;;;6.60;;
25391;SDS011;13329;48.402;11.718;2023-03-01T05:37:00;24.30;;;8.85;;
25391;SDS011;13329;48.402;11.718;2023-03-01T05:39:26;18.70;;;6.60;;
25391;SDS011;13329;48.402;11.718;2023-03-01T05:41:52;19.98;;;7.60;;
25391;SDS011;13329;48.402;11.718;2023-03-01T05:44:18;17.00;;;7.30;;
25391;SDS011;13329;48.402;11.718;2023-03-01T05:46:43;16.90;;;7.60;;
25391;SDS011;13329;48.402;11.718;2023-03-01T05:49:09;20.27;;;6.80;;
25391;SDS011;13329;48.402;11.718;2023-03-01T05:51:34;20.27;;;7.57;;
25391;SDS011;13329;48.402;11.718;2023-03-01T05:54:00;18.27;;;7.50;;
25391;SDS011;13329;48.402;11.718;2023-03-01T05:56:25;17.33;;;7.75;;
25391;SDS011;13329;48.402;11.718;2023-03-01T05:58:50;18.50;;;6.80;;
25391;SDS011;13329;48.402;11.718;2023-03-01T06:01:15;18.50;;;6.53;;
25391;SDS011;13329;48.402;11.718;2023-03-01T06:03:40;21.00;;;7.83;;
25391;SDS011;13329;48.402;11.718;2023-03-01T06:06:06;22.38;;;7.38;;
25391;SDS011;13329;48.402;11.718;2023-03-01T06:08:31;18.60;;;7.60;;
25391;SDS011;13329;48.402;11.718;2023-03-01T06:10:56;15.73;;;7.17;;
25391;SDS011;13329;48.402;11.718;2023-03-01T06:13:21;17.73;;;7.77;;
25391;SDS011;13329;48.402;11.718;2023-03-01T06:15:47;18.63;;;7.28;;
25391;SDS011;13329;48.402;11.718;2023-03-01T06:18:13;19.93;;;6.63;;
25391;SDS011;13329;48.402;11.718;2023-03-01T06:20:38;16.35;;;7.13;;
25391;SDS011;13329;48.402;11.718;2023-03-01T06:23:03;25.15;;;7.68;;
25391;SDS011;13329;48.402;11.718;2023-03-01T06:25:29;19.17;;;7.10;;
25391;SDS011;13329;48.402;11.718;2023-03-01T06:27:55;21.50;;;7.85;;
25391;SDS011;13329;48.402;11.718;2023-03-01T06:30:21;18.38;;;7.20;;
25391;SDS011;13329;48.402;11.718;2023-03-01T06:32:46;18.23;;;7.50;;
25391;SDS011;13329;48.402;11.718;2023-03-01T06:35:12;22.90;;;7.97;;
25391;SDS011;13329;48.402;11.718;2023-03-01T06:37:38;17.38;;;7.43;;
25391;SDS011;13329;48.402;11.718;2023-03-01T06:40:04;18.60;;;6.82;;
25391;SDS011;13329;48.402;11.718;2023-03-01T06:42:33;18.15;;;7.60;;
25391;SDS011;13329;48.402;11.718;2023-03-01T06:44:58;20.00;;;8.55;;
25391;SDS011;13329;48.402;11.718;2023-03-01T06:47:23;17.97;;;7.10;;
25391;SDS011;13329;48.402;11.718;2023-03-01T06:49:48;17.45;;;7.22;;
25391;SDS011;13329;48.402;11.718;2023-03-01T06:52:13;18.60;;;6.73;;
25391;SDS011;13329;48.402;11.718;2023-03-01T06:54:38;22.42;;;7.90;;
25391;SDS011;13329;48.402;11.718;2023-03-01T06:57:04;19.20;;;7.40;;
25391;SDS011;13329;48.402;11.718;2023-03-01T06:59:29;18.27;;;7.00;;
25391;SDS011;13329;48.402;11.718;2023-03-01T07:01:54;23.80;;;7.60;;
25391;SDS011;13329;48.402;11.718;2023-03-01T07:04:19;18.13;;;6.50;;
25391;SDS011;13329;48.402;11.718;2023-03-01T07:06:44;21.95;;;8.32;;
25391;SDS011;13329;48.402;11.718;2023-03-01T07:09:09;17.92;;;7.05;;
25391;SDS011;13329;48.402;11.718;2023-03-01T07:11:35;17.17;;;7.10;;
25391;SDS011;13329;48.402;11.718;2023-03-01T07:14:00;23.27;;;8.20;;
25391;SDS011;13329;48.402;11.718;2023-03-01T07:16:25;20.53;;;7.27;;
25391;SDS011;13329;48.402;11.718;2023-03-01T07:18:51;19.40;;;7.63;;
25391;SDS011;13329;48.402;11.718;2023-03-01T07:21:16;21.53;;;7.87;;
25391;SDS011;13329;48.402;11.718;2023-03-01T07:23:41;18.73;;;7.23;;
25391;SDS011;13329;48.402;11.718;2023-03-01T07:26:07;18.77;;;7.97;;
25391;SDS011;13329;48.402;11.718;2023-03-01T07:28:32;21.23;;;8.23;;
25391;SDS011;13329;48.402;11.718;2023-03-01T07:31:04;18.77;;;7.60;;
25391;SDS011;13329;48.402;11.718;2023-03-01T07:33:29;22.95;;;7.93;;
25391;SDS011;13329;48.402;11.718;2023-03-01T07:35:55;23.10;;;7.60;;
25391;SDS011;13329;48.402;11.718;2023-03-01T07:38:20;17.08;;;7.90;;
25391;SDS011;13329;48.402;11.718;2023-03-01T07:40:45;23.73;;;8.03;;
25391;SDS011;13329;48.402;11.718;2023-03-01T07:43:11;19.53;;;6.80;;
25391;SDS011;13329;48.402;11.718;2023-03-01T07:45:36;20.42;;;7.53;;
25391;SDS011;13329;48.402;11.718;2023-03-01T07:48:01;21.40;;;8.37;;
25391;SDS011;13329;48.402;11.718;2023-03-01T07:50:26;20.70;;;8.27;;
25391;SDS011;13329;48.402;11.718;2023-03-01T07:52:51;16.47;;;6.83;;
25391;SDS011;13329;48.402;11.718;2023-03-01T07:55:16;20.73;;;8.43;;
25391;SDS011;13329;48.402;11.718;2023-03-01T07:57:42;19.20;;;8.37;;
25391;SDS011;13329;48.402;11.718;2023-03-01T08:00:08;22.50;;;8.15;;
25391;SDS011;13329;48.402;11.718;2023-03-01T08:02:34;18.50;;;7.45;;
25391;SDS011;13329;48.402;11.718;2023-03-01T08:04:59;25.77;;;8.88;;
25391;SDS011;13329;48.402;11.718;2023-03-01T08:07:25;20.03;;;7.97;;
25391;SDS011;13329;48.402;11.718;2023-03-01T08:09:50;27.93;;;9.57;;
25391;SDS011;13329;48.402;11.718;2023-03-01T08:12:15;18.70;;;8.93;;
25391;SDS011;13329;48.402;11.718;2023-03-01T08:14:41;23.00;;;8.15;;
25391;SDS011;13329;48.402;11.718;2023-03-01T08:17:07;19.45;;;8.40;;
25391;SDS011;13329;48.402;11.718;2023-03-01T08:19:32;21.00;;;8.57;;
25391;SDS011;13329;48.402;11.718;2023-03-01T08:21:58;17.42;;;7.22;;
25391;SDS011;13329;48.402;11.718;2023-03-01T08:24:25;17.92;;;8.65;;
25391;SDS011;13329;48.402;11.718;2023-03-01T08:26:50;21.92;;;8.82;;
25391;SDS011;13329;48.402;11.718;2023-03-01T08:29:15;20.17;;;8.98;;
25391;SDS011;13329;48.402;11.718;2023-03-01T08:31:40;18.40;;;7.97;;
25391;SDS011;13329;48.402;11.718;2023-03-01T08:34:07;20.73;;;9.18;;
25391;SDS011;13329;48.402;11.718;2023-03-01T08:36:34;21.35;;;8.65;;
25391;SDS011;13329;48.402;11.718;2023-03-01T08:39:00;19.67;;;8.73;;
25391;SDS011;13329;48.402;11.718;2023-03-01T08:41:25;20.95;;;8.93;;
25391;SDS011;13329;48.402;11.718;2023-03-01T08:43:50;21.50;;;7.77;;
25391;SDS011;13329;48.402;11.718;2023-03-01T08:46:16;22.10;;;8.63;;
25391;SDS011;13329;48.402;11.718;2023-03-01T08:48:41;15.90;;;7.77;;
25391;SDS011;13329;48.402;11.718;2023-03-01T08:51:14;26.20;;;9.35;;
25391;SDS011;13329;48.402;11.718;2023-03-01T08:53:40;20.97;;;8.40;;
25391;SDS011;13329;48.402;11.718;2023-03-01T08:56:05;23.20;;;9.77;;
25391;SDS011;13329;48.402;11.718;2023-03-01T08:58:31;24.17;;;8.20;;
25391;SDS011;13329;48.402;11.718;2023-03-01T09:00:56;18.20;;;8.57;;
25391;SDS011;13329;48.402;11.718;2023-03-01T09:03:21;22.15;;;8.25;;
25391;SDS011;13329;48.402;11.718;2023-03-01T09:05:47;22.08;;;8.98;;
25391;SDS011;13329;48.402;11.718;2023-03-01T09:08:12;23.43;;;9.03;;
25391;SDS011;13329;48.402;11.718;2023-03-01T09:10:38;21.43;;;9.13;;
25391;SDS011;13329;48.402;11.718;2023-03-01T09:13:04;24.13;;;9.65;;
25391;SDS011;13329;48.402;11.718;2023-03-01T09:15:29;20.73;;;8.70;;
25391;SDS011;13329;48.402;11.718;2023-03-01T09:17:54;20.05;;;8.02;;
25391;SDS011;13329;48.402;11.718;2023-03-01T09:20:19;26.57;;;9.07;;
25391;SDS011;13329;48.402;11.718;2023-03-01T09:22:45;21.27;;;8.67;;
25391;SDS011;13329;48.402;11.718;2023-03-01T09:25:10;22.50;;;8.43;;
25391;SDS011;13329;48.402;11.718;2023-03-01T09:27:35;24.10;;;8.30;;
25391;SDS011;13329;48.402;11.718;2023-03-01T09:30:00;18.43;;;8.23;;
25391;SDS011;13329;48.402;11.718;2023-03-01T09:32:25;20.83;;;9.40;;
25391;SDS011;13329;48.402;11.718;2023-03-01T09:34:51;23.83;;;8.87;;
25391;SDS011;13329;48.402;11.718;2023-03-01T09:37:32;24.88;;;9.23;;
25391;SDS011;13329;48.402;11.718;2023-03-01T09:39:57;21.65;;;8.60;;
25391;SDS011;13329;48.402;11.718;2023-03-01T09:42:22;25.60;;;9.90;;
25391;SDS011;13329;48.402;11.718;2023-03-01T09:47:20;23.92;;;9.80;;
25391;SDS011;13329;48.402;11.718;2023-03-01T09:50:04;22.67;;;9.18;;
25391;SDS011;13329;48.402;11.718;2023-03-01T09:52:33;18.52;;;9.52;;
25391;SDS011;13329;48.402;11.718;2023-03-01T09:54:59;19.15;;;8.77;;
25391;SDS011;13329;48.402;11.718;2023-03-01T09:57:39;20.33;;;8.50;;
25391;SDS011;13329;48.402;11.718;2023-03-01T10:02:38;18.23;;;8.53;;
25391;SDS011;13329;48.402;11.718;2023-03-01T10:07:41;19.00;;;9.52;;
25391;SDS011;13329;48.402;11.718;2023-03-01T10:10:10;23.70;;;9.43;;
25391;SDS011;13329;48.402;11.718;2023-03-01T10:12:41;15.88;;;6.97;;
25391;SDS011;13329;48.402;11.718;2023-03-01T10:15:15;23.42;;;9.40;;
25391;SDS011;13329;48.402;11.718;2023-03-01T10:17:44;19.85;;;8.70;;
25391;SDS011;13329;48.402;11.718;2023-03-01T10:22:40;18.70;;;9.20;;
25391;SDS011;13329;48.402;11.718;2023-03-01T10:25:06;18.23;;;9.77;;
25391;SDS011;13329;48.402;11.718;2023-03-01T10:29:59;24.55;;;9.23;;
25391;SDS011;13329;48.402;11.718;2023-03-01T10:32:27;21.55;;;9.00;;
25391;SDS011;13329;48.402;11.718;2023-03-01T10:34:52;21.13;;;9.70;;
25391;SDS011;13329;48.402;11.718;2023-03-01T10:37:19;17.53;;;9.47;;
25391;SDS011;13329;48.402;11.718;2023-03-01T10:40:03;19.75;;;9.48;;
25391;SDS011;13329;48.402;11.718;2023-03-01T10:42:34;19.83;;;9.90;;
25391;SDS011;13329;48.402;11.718;2023-03-01T10:47:44;18.92;;;9.18;;
25391;SDS011;13329;48.402;11.718;2023-03-01T10:50:17;17.70;;;9.53;;
25391;SDS011;13329;48.402;11.718;2023-03-01T10:52:43;21.83;;;10.00;;
25391;SDS011;13329;48.402;11.718;2023-03-01T10:57:55;18.00;;;9.20;;
25391;SDS011;13329;48.402;11.718;2023-03-01T11:00:30;21.42;;;9.75;;
25391;SDS011;13329;48.402;11.718;2023-03-01T11:05:24;22.63;;;10.60;;
25391;SDS011;13329;48.402;11.718;2023-03-01T11:12:46;16.50;;;9.20;;
25391;SDS011;13329;48.402;11.718;2023-03-01T11:15:23;18.03;;;9.43;;
25391;SDS011;13329;48.402;11.718;2023-03-01T11:17:49;18.42;;;9.23;;
25391;SDS011;13329;48.402;11.718;2023-03-01T11:20:20;20.70;;;9.05;;
25391;SDS011;13329;48.402;11.718;2023-03-01T11:23:10;21.88;;;10.27;;
25391;SDS011;13329;48.402;11.718;2023-03-01T11:25:35;18.63;;;8.75;;
25391;SDS011;13329;48.402;11.718;2023-03-01T11:28:01;18.73;;;9.00;;
25391;SDS011;13329;48.402;11.718;2023-03-01T11:30:29;18.35;;;8.63;;
25391;SDS011;13329;48.402;11.718;2023-03-01T11:35:33;16.95;;;8.63;;
25391;SDS011;13329;48.402;11.718;2023-03-01T11:40:29;20.33;;;9.65;;
25391;SDS011;13329;48.402;11.718;2023-03-01T11:45:46;20.75;;;9.63;;
25391;SDS011;13329;48.402;11.718;2023-03-01T11:48:17;18.77;;;9.32;;
25391;SDS011;13329;48.402;11.718;2023-03-01T11:50:49;19.15;;;10.25;;
25391;SDS011;13329;48.402;11.718;2023-03-01T11:55:49;20.30;;;9.15;;
25391;SDS011;13329;48.402;11.718;2023-03-01T11:58:23;16.48;;;9.05;;
25391;SDS011;13329;48.402;11.718;2023-03-01T12:05:50;20.85;;;10.30;;
25391;SDS011;13329;48.402;11.718;2023-03-01T12:08:24;16.40;;;9.30;;
25391;SDS011;13329;48.402;11.718;2023-03-01T12:10:57;18.80;;;10.02;;
25391;SDS011;13329;48.402;11.718;2023-03-01T12:36:47;15.60;;;8.57;;
25391;SDS011;13329;48.402;11.718;2023-03-01T12:41:46;17.35;;;8.95;;
25391;SDS011;13329;48.402;11.718;2023-03-01T12:47:00;15.55;;;8.45;;
25391;SDS011;13329;48.402;11.718;2023-03-01T12:49:34;14.25;;;7.43;;
25391;SDS011;13329;48.402;11.718;2023-03-01T12:52:09;15.52;;;7.85;;
25391;SDS011;13329;48.402;11.718;2023-03-01T12:54:35;16.10;;;7.88;;
25391;SDS011;13329;48.402;11.718;2023-03-01T13:02:19;15.30;;;8.13;;
25391;SDS011;13329;48.402;11.718;2023-03-01T13:04:52;14.15;;;7.78;;
25391;SDS011;13329;48.402;11.718;2023-03-01T13:07:22;13.80;;;7.65;;
25391;SDS011;13329;48.402;11.718;2023-03-01T13:17:30;14.32;;;7.85;;
25391;SDS011;13329;48.402;11.718;2023-03-01T13:19:57;14.60;;;7.68;;
25391;SDS011;13329;48.402;11.718;2023-03-01T13:22:29;17.70;;;8.23;;
25391;SDS011;13329;48.402;11.718;2023-03-01T13:30:43;16.50;;;7.53;;
25391;SDS011;13329;48.402;11.718;2023-03-01T13:35:52;15.57;;;8.32;;
25391;SDS011;13329;48.402;11.718;2023-03-01T13:41:01;16.35;;;7.57;;
25391;SDS011;13329;48.402;11.718;2023-03-01T13:43:31;14.97;;;7.90;;
25391;SDS011;13329;48.402;11.718;2023-03-01T13:45:57;16.95;;;8.23;;
25391;SDS011;13329;48.402;11.718;2023-03-01T13:48:27;17.17;;;8.40;;
25391;SDS011;13329;48.402;11.718;2023-03-01T13:50:54;16.10;;;8.25;;
25391;SDS011;13329;48.402;11.718;2023-03-01T13:53:24;15.35;;;7.57;;
25391;SDS011;13329;48.402;11.718;2023-03-01T13:55:51;17.45;;;8.40;;
25391;SDS011;13329;48.402;11.718;2023-03-01T13:58:21;19.35;;;8.23;;
25391;SDS011;13329;48.402;11.718;2023-03-01T14:00:47;17.60;;;8.23;;
25391;SDS011;13329;48.402;11.718;2023-03-01T14:03:13;16.10;;;8.70;;
25391;SDS011;13329;48.402;11.718;2023-03-01T14:05:40;15.38;;;7.63;;
25391;SDS011;13329;48.402;11.718;2023-03-01T14:08:17;14.27;;;7.88;;
25391;SDS011;13329;48.402;11.718;2023-03-01T14:11:05;14.35;;;8.13;;
25391;SDS011;13329;48.402;11.718;2023-03-01T14:24:29;18.67;;;8.55;;
25391;SDS011;13329;48.402;11.718;2023-03-01T14:26:55;13.48;;;7.40;;
25391;SDS011;13329;48.402;11.718;2023-03-01T14:32:22;13.75;;;7.57;;
25391;SDS011;13329;48.402;11.718;2023-03-01T14:34:49;13.98;;;7.40;;
25391;SDS011;13329;48.402;11.718;2023-03-01T14:37:25;16.13;;;7.18;;
25391;SDS011;13329;48.402;11.718;2023-03-01T14:39:51;14.20;;;7.38;;
25391;SDS011;13329;48.402;11.718;2023-03-01T14:42:16;13.25;;;7.18;;
25391;SDS011;13329;48.402;11.718;2023-03-01T14:44:45;14.02;;;7.13;;
25391;SDS011;13329;48.402;11.718;2023-03-01T14:47:21;13.45;;;7.03;;
25391;SDS011;13329;48.402;11.718;2023-03-01T14:49:49;12.52;;;6.82;;
25391;SDS011;13329;48.402;11.718;2023-03-01T14:52:20;12.93;;;6.90;;
25391;SDS011;13329;48.402;11.718;2023-03-01T14:54:46;13.57;;;6.80;;
25391;SDS011;13329;48.402;11.718;2023-03-01T14:57:17;13.32;;;6.38;;
25391;SDS011;13329;48.402;11.718;2023-03-01T14:59:43;14.82;;;6.93;;
25391;SDS011;13329;48.402;11.718;2023-03-01T15:02:10;14.40;;;7.05;;
25391;SDS011;13329;48.402;11.718;2023-03-01T15:04:42;13.13;;;6.63;;
25391;SDS011;13329;48.402;11.718;2023-03-01T15:07:09;14.15;;;7.00;;
25391;SDS011;13329;48.402;11.718;2023-03-01T15:09:36;14.13;;;7.05;;
25391;SDS011;13329;48.402;11.718;2023-03-01T15:12:23;12.30;;;6.35;;
25391;SDS011;13329;48.402;11.718;2023-03-01T15:14:47;13.70;;;6.28;;
25391;SDS011;13329;48.402;11.718;2023-03-01T15:17:21;15.13;;;6.85;;
25391;SDS011;13329;48.402;11.718;2023-03-01T15:19:48;13.00;;;6.47;;
25391;SDS011;13329;48.402;11.718;2023-03-01T15:22:14;13.35;;;6.38;;
25391;SDS011;13329;48.402;11.718;2023-03-01T15:24:40;13.32;;;6.07;;
25391;SDS011;13329;48.402;11.718;2023-03-01T15:27:12;13.27;;;6.67;;
25391;SDS011;13329;48.402;11.718;2023-03-01T15:32:27;13.18;;;5.63;;
25391;SDS011;13329;48.402;11.718;2023-03-01T15:34:51;16.00;;;5.63;;
25391;SDS011;13329;48.402;11.718;2023-03-01T15:40:00;11.23;;;5.78;;
25391;SDS011;13329;48.402;11.718;2023-03-01T15:47:39;11.85;;;5.55;;
25391;SDS011;13329;48.402;11.718;2023-03-01T15:50:26;12.88;;;5.72;;
25391;SDS011;13329;48.402;11.718;2023-03-01T15:52:52;14.65;;;6.10;;
25391;SDS011;13329;48.402;11.718;2023-03-01T15:55:19;12.75;;;5.97;;
25391;SDS011;13329;48.402;11.718;2023-03-01T15:57:45;12.48;;;5.75;;
25391;SDS011;13329;48.402;11.718;2023-03-01T16:00:11;13.02;;;6.28;;
25391;SDS011;13329;48.402;11.718;2023-03-01T16:02:38;13.52;;;5.60;;
25391;SDS011;13329;48.402;11.718;2023-03-01T16:05:03;11.53;;;5.53;;
25391;SDS011;13329;48.402;11.718;2023-03-01T16:07:28;12.75;;;5.85;;
25391;SDS011;13329;48.402;11.718;2023-03-01T16:09:54;11.70;;;5.95;;
25391;SDS011;13329;48.402;11.718;2023-03-01T16:12:19;17.13;;;5.67;;
25391;SDS011;13329;48.402;11.718;2023-03-01T16:14:46;14.10;;;6.10;;
25391;SDS011;13329;48.402;11.718;2023-03-01T16:17:13;12.73;;;5.88;;
25391;SDS011;13329;48.402;11.718;2023-03-01T16:19:38;12.07;;;5.70;;
25391;SDS011;13329;48.402;11.718;2023-03-01T16:22:03;15.52;;;5.63;;
25391;SDS011;13329;48.402;11.718;2023-03-01T16:24:29;12.77;;;5.72;;
25391;SDS011;13329;48.402;11.718;2023-03-01T16:26:54;13.80;;;6.13;;
25391;SDS011;13329;48.402;11.718;2023-03-01T16:29:20;13.60;;;6.00;;